Nellysford, Virginia
Current Conditions -  °F | °C
As of 8:15 PM on Thursday 27 Nov 2014 (Local Time) from KW13 Reporting Station
Overcast Overcast  
Wind Chill: 31°   Ceiling: 6000
Heat Index: 31°   Visibility: 10mi
Dew Point: 21°   Wind: 3mph
Humidity: 66%   Direction: 250°WSW
Pressure: 30.16"   Gusts: NA
Location:  37.91°N, 78.87°W
Report Text: KW13 280115Z AUTO 25003KT 10SM SCT046 OVC060 00/M06 A3016 RMK AO1 T10031059
Loading
Personal Weather Stations






























Interactive Weather Map New forecast layout! Learn more

10-Day Weather Forecast

Advertisements
Track Severe Weather on mobile